Fernie, Canada
Current Conditions -  °F | °C
As of 1:00 AM on Friday 31 Oct 2014 (Local Time) from CYXC Reporting Station
Broken Clouds Broken Clouds  
Wind Chill: 41°   Ceiling: 18000
Heat Index: 41°   Visibility: 25mi
Dew Point: 39°   Wind: 3mph
Humidity: 93%   Direction: 280°W
Pressure: 29.92"   Gusts: NA
Location:  49.51°N, 115.06°W
Report Text: CYXC 310700Z 28003KT 25SM SCT065 BKN180 05/04 A2992 RMK SC3AC3 SLP147
Loading
Personal Weather Stations






























Interactive Weather Map
Tropical Storm Tracking
New forecast layout! Learn more

10-Day Weather Forecast

Advertisements
Track Severe Weather on mobile